KJVL/JVL METAR and TAF weather

Enter ICAO airport designator
Station Type Date Time Source
KJVL METAR 2019/06/17 14:45 UTC NOAA

KJVL 171445Z VRB04KT 10SM OVC015 17/12 A3003


Station Type Date Time Source
KJVL Decoded METAR 2019/06/17 14:45 UTC NOAA

Janesville / Rock County, WI, United States (KJVL) 42-37N 089-02W
Jun 17, 2019 - 10:45 AM EDT / 2019.06.17 1445 UTC
Wind: Variable at 5 MPH (4 KT):0
Visibility: 10 mile(s):0
Sky conditions: overcast
Temperature: 62 F (17 C)
Dew Point: 53 F (12 C)
Relative Humidity: 72%
Pressure (altimeter): 30.03 in. Hg (1016 hPa)
ob: KJVL 171445Z VRB04KT 10SM OVC015 17/12 A3003
cycle: 15

Station Type Date Time Source
KJVL TAF UTC NOAA

Error!

Example: see airport list